Time;durP1;ratioP1;P1;durP2;ratioP2;P2;SDS_P1;SDS_P2;PMS_P1;PMS_P2;Temp;Humidity;BMP_temperature;BMP_pressure;BME280_temperature;BME280_humidity;BME280_pressure;Samples;Min_cycle;Max_cycle;Signal;HPM_P1;HPM_P2
2023/12/05 00:04:33;;;;;;;16.90;13.95;;;;;;;1.93;91.47;98911.31;10334246;28;20113;-63
2023/12/05 00:09:35;;;;;;;15.07;13.45;;;;;;;1.99;91.64;98909.25;10332325;28;20504;-62
2023/12/05 00:14:38;;;;;;;16.95;13.57;;;;;;;1.77;91.74;98864.28;10331151;28;20061;-63
2023/12/05 00:19:39;;;;;;;16.73;15.02;;;;;;;2.04;91.80;98892.25;10348923;28;20063;-63
2023/12/05 00:24:41;;;;;;;18.50;14.50;;;;;;;2.03;92.28;98882.69;10350568;28;20096;-62
2023/12/05 00:29:42;;;;;;;16.73;14.13;;;;;;;2.06;92.50;98887.72;10334924;28;20042;-63
2023/12/05 00:34:45;;;;;;;15.27;13.02;;;;;;;2.04;92.47;98879.13;10342028;28;20054;-63
2023/12/05 00:39:47;;;;;;;17.30;14.48;;;;;;;2.20;92.39;98896.47;10338780;28;20062;-63
2023/12/05 00:44:49;;;;;;;16.67;14.73;;;;;;;2.10;92.49;98865.59;10341328;28;20054;-64
2023/12/05 00:49:50;;;;;;;16.98;13.85;;;;;;;2.10;93.33;98849.84;10337840;28;20191;-62
2023/12/05 00:54:52;;;;;;;16.70;13.95;;;;;;;2.22;93.73;98874.41;10345730;28;20053;-62
2023/12/05 00:59:54;;;;;;;16.77;15.00;;;;;;;2.10;94.60;98860.34;10358351;28;20080;-63
2023/12/05 01:04:56;;;;;;;17.95;14.80;;;;;;;2.28;94.67;98881.00;10345135;28;20076;-61
2023/12/05 01:09:58;;;;;;;17.50;15.02;;;;;;;2.32;94.70;98885.13;10341566;28;20045;-63
2023/12/05 01:15:01;;;;;;;17.42;15.48;;;;;;;2.41;94.25;98889.75;10334905;28;20615;-63
2023/12/05 01:20:07;;;;;;;17.45;14.57;;;;;;;2.44;94.45;98875.56;10317558;28;20505;-63
2023/12/05 01:25:09;;;;;;;17.13;14.88;;;;;;;2.47;94.46;98878.81;10323018;28;20041;-62
2023/12/05 01:30:11;;;;;;;17.88;14.43;;;;;;;2.48;94.28;98880.50;10347549;28;20083;-64
2023/12/05 01:35:14;;;;;;;16.27;13.73;;;;;;;2.50;94.99;98877.75;10337463;28;20178;-65
2023/12/05 01:40:16;;;;;;;18.42;15.98;;;;;;;2.51;95.17;98875.97;10317596;28;20072;-64
2023/12/05 01:45:20;;;;;;;17.17;15.38;;;;;;;2.56;95.15;98881.75;10338723;28;20529;-63
2023/12/05 01:50:25;;;;;;;18.43;16.37;;;;;;;2.56;95.89;98873.88;10338762;28;20668;-63
2023/12/05 01:55:29;;;;;;;17.13;15.27;;;;;;;2.64;95.49;98868.91;10339042;28;20080;-63
2023/12/05 02:00:30;;;;;;;15.82;13.93;;;;;;;2.64;95.51;98874.16;10341879;28;20119;-63
2023/12/05 02:05:32;;;;;;;17.02;15.27;;;;;;;2.71;95.34;98875.44;10339443;28;20098;-63
2023/12/05 02:10:35;;;;;;;16.50;14.52;;;;;;;2.72;94.85;98866.59;10341645;28;20594;-63
2023/12/05 02:15:37;;;;;;;16.00;14.30;;;;;;;2.79;94.89;98872.25;10337346;28;20054;-62
2023/12/05 02:21:08;;;;;;;19.58;16.23;;;;;;;2.82;94.71;98872.91;10342905;28;20201;-65
2023/12/05 02:26:27;;;;;;;17.92;15.40;;;;;;;2.81;95.14;98865.94;10346356;28;20148;-62
2023/12/05 02:31:29;;;;;;;16.55;14.73;;;;;;;2.81;95.24;98850.19;10343230;28;20095;-65
2023/12/05 02:36:49;;;;;;;18.27;15.35;;;;;;;2.87;95.02;98853.31;10328058;28;20057;-65
2023/12/05 02:41:55;;;;;;;17.55;14.48;;;;;;;2.87;94.66;98833.16;10332984;28;20050;-63
2023/12/05 02:47:00;;;;;;;16.60;14.82;;;;;;;2.96;94.54;98842.16;10337110;28;20906;-62
2023/12/05 02:52:01;;;;;;;15.30;13.70;;;;;;;2.98;94.30;98835.84;10347916;28;20057;-62
2023/12/05 02:57:03;;;;;;;16.42;14.73;;;;;;;2.96;94.81;98847.44;10333509;28;20041;-63
2023/12/05 03:02:06;;;;;;;17.90;15.15;;;;;;;2.98;94.68;98840.25;10335927;28;20053;-62
2023/12/05 03:07:08;;;;;;;16.63;14.57;;;;;;;3.04;94.69;98845.06;10335991;28;20045;-64
2023/12/05 03:12:10;;;;;;;17.00;14.55;;;;;;;3.09;94.22;98845.59;10347859;28;20057;-63
2023/12/05 03:17:11;;;;;;;18.00;15.43;;;;;;;3.10;94.41;98849.88;10335650;28;20125;-63
2023/12/05 03:22:14;;;;;;;16.92;14.20;;;;;;;3.08;94.32;98840.41;10335448;28;20112;-63
2023/12/05 03:27:16;;;;;;;18.05;15.70;;;;;;;3.21;93.82;98850.91;10331970;28;20053;-64
2023/12/05 03:32:17;;;;;;;17.67;15.48;;;;;;;3.22;93.96;98852.59;10316765;28;20604;-65
2023/12/05 03:37:19;;;;;;;17.00;15.20;;;;;;;3.30;93.32;98853.72;10342697;28;20108;-63
2023/12/05 03:42:20;;;;;;;20.13;15.23;;;;;;;3.26;93.63;98836.47;10332066;28;20300;-64
2023/12/05 03:47:22;;;;;;;16.02;14.38;;;;;;;3.32;93.33;98843.91;10322894;28;20054;-63
2023/12/05 03:52:24;;;;;;;17.35;14.50;;;;;;;3.32;93.63;98845.72;10338381;28;20075;-63
2023/12/05 03:57:25;;;;;;;17.42;14.35;;;;;;;3.31;93.88;98852.75;10330968;28;20057;-64
2023/12/05 04:02:27;;;;;;;16.92;15.10;;;;;;;3.38;93.59;98847.91;10324023;28;20070;-63
2023/12/05 04:07:28;;;;;;;16.45;14.65;;;;;;;3.39;93.38;98852.19;10329823;28;20053;-64
2023/12/05 04:12:30;;;;;;;18.50;15.30;;;;;;;3.40;93.61;98853.88;10345019;28;20052;-63
2023/12/05 04:17:32;;;;;;;17.75;14.73;;;;;;;3.44;93.67;98846.59;10337796;28;20105;-64
2023/12/05 04:22:34;;;;;;;17.10;14.93;;;;;;;3.44;93.97;98855.34;10336979;28;20053;-64
2023/12/05 04:27:36;;;;;;;19.33;15.30;;;;;;;3.46;93.96;98850.78;10340217;28;20062;-65
2023/12/05 04:32:37;;;;;;;18.15;15.68;;;;;;;3.46;94.28;98853.41;10343957;28;20046;-64
2023/12/05 04:37:39;;;;;;;17.27;15.20;;;;;;;3.41;94.39;98852.94;10339186;28;20077;-64
2023/12/05 04:42:42;;;;;;;19.20;17.00;;;;;;;3.35;94.43;98832.34;10339622;28;20060;-62
2023/12/05 04:47:43;;;;;;;18.30;14.82;;;;;;;3.45;94.77;98841.25;10339559;28;20062;-64
2023/12/05 04:52:45;;;;;;;15.85;14.10;;;;;;;3.44;94.89;98847.44;10340179;28;20151;-63
2023/12/05 04:57:46;;;;;;;16.73;15.02;;;;;;;3.49;94.80;98834.78;10335810;28;20215;-65
2023/12/05 05:02:48;;;;;;;16.65;14.50;;;;;;;3.46;95.36;98832.38;10324756;28;20054;-65
2023/12/05 05:07:50;;;;;;;17.20;14.95;;;;;;;3.44;95.86;98842.19;10343281;28;20137;-64
2023/12/05 05:12:51;;;;;;;16.60;14.38;;;;;;;3.43;95.63;98829.97;10349837;28;20140;-64
2023/12/05 05:17:52;;;;;;;18.05;14.90;;;;;;;3.51;95.18;98827.63;10334082;28;20064;-64
2023/12/05 05:22:54;;;;;;;15.82;13.02;;;;;;;3.61;94.66;98842.72;10343161;28;20049;-64
2023/12/05 05:27:55;;;;;;;15.93;14.18;;;;;;;3.67;94.51;98842.28;10341894;28;20152;-65
2023/12/05 05:32:59;;;;;;;18.05;15.05;;;;;;;3.67;94.13;98837.00;10343907;28;20096;-61
2023/12/05 05:38:00;;;;;;;16.45;13.68;;;;;;;3.50;94.15;98804.91;10340347;28;20053;-63
2023/12/05 05:43:02;;;;;;;17.75;14.98;;;;;;;3.73;93.77;98841.81;10339350;28;20049;-63
2023/12/05 05:48:04;;;;;;;16.98;14.52;;;;;;;3.86;93.80;98847.00;10338114;28;20049;-64
2023/12/05 05:53:06;;;;;;;16.98;13.63;;;;;;;3.88;93.84;98856.44;10332748;28;20052;-64
2023/12/05 05:58:10;;;;;;;17.08;14.45;;;;;;;3.89;93.95;98862.56;10350186;28;20080;-64
2023/12/05 06:03:13;;;;;;;15.10;13.50;;;;;;;3.85;93.54;98851.41;10340328;28;20536;-64
2023/12/05 06:08:15;;;;;;;18.35;15.02;;;;;;;3.89;93.79;98857.31;10324712;28;20520;-65
2023/12/05 06:13:16;;;;;;;17.60;14.15;;;;;;;3.97;93.63;98865.44;10346746;28;20057;-64
2023/12/05 06:18:18;;;;;;;16.67;14.88;;;;;;;3.98;93.85;98868.91;10327180;28;20304;-64
2023/12/05 06:23:23;;;;;;;16.88;14.90;;;;;;;4.00;93.70;98865.22;10345949;28;20053;-65
2023/12/05 06:28:24;;;;;;;14.80;13.10;;;;;;;3.99;93.95;98858.25;10339850;28;20046;-66
2023/12/05 06:33:26;;;;;;;20.58;16.77;;;;;;;4.06;93.57;98869.19;10339716;28;20284;-65
2023/12/05 06:38:27;;;;;;;28.23;23.42;;;;;;;4.10;93.89;98864.53;10343927;28;20054;-64
2023/12/05 06:43:29;;;;;;;31.50;28.40;;;;;;;4.11;93.70;98866.22;10337036;28;20057;-65
2023/12/05 06:48:30;;;;;;;34.55;30.88;;;;;;;4.09;94.49;98863.69;10333928;28;20061;-64
2023/12/05 06:53:32;;;;;;;16.30;14.57;;;;;;;4.14;94.86;98871.25;10346022;28;20097;-64
2023/12/05 06:58:45;;;;;;;14.32;12.77;;;;;;;3.95;94.42;98834.91;10340154;28;20143;-65
2023/12/05 07:03:47;;;;;;;14.35;12.85;;;;;;;4.25;94.70;98881.81;10308010;28;20097;-64
2023/12/05 07:08:58;;;;;;;16.33;13.13;;;;;;;4.27;94.86;98886.97;10335757;28;20124;-64
2023/12/05 07:14:00;;;;;;;14.18;12.05;;;;;;;4.29;94.15;98900.84;10329418;28;20527;-65
2023/12/05 07:19:01;;;;;;;14.27;11.85;;;;;;;4.34;94.49;98909.22;10335636;28;20140;-64
2023/12/05 07:24:03;;;;;;;14.95;12.50;;;;;;;4.35;94.54;98903.00;10330047;28;20130;-64
2023/12/05 07:29:06;;;;;;;15.02;11.27;;;;;;;4.39;94.63;98918.47;10335729;28;20109;-63
2023/12/05 07:34:11;;;;;;;14.77;11.43;;;;;;;4.41;94.75;98921.84;10340188;28;20053;-63
2023/12/05 07:39:15;;;;;;;14.77;11.77;;;;;;;4.45;94.56;98922.44;10331016;28;20053;-63
2023/12/05 07:44:17;;;;;;;14.75;12.02;;;;;;;4.49;94.98;98912.50;10336728;28;20064;-63
2023/12/05 07:49:19;;;;;;;15.18;13.57;;;;;;;4.54;94.94;98919.09;10331478;28;20082;-64
2023/12/05 07:54:20;;;;;;;14.82;12.75;;;;;;;4.58;95.15;98917.91;10337924;28;20054;-63
2023/12/05 07:59:23;;;;;;;12.75;10.95;;;;;;;4.66;95.22;98925.22;10333141;28;20057;-64
2023/12/05 08:04:24;;;;;;;18.70;11.88;;;;;;;4.75;95.45;98916.59;10336994;28;20068;-65
2023/12/05 08:09:27;;;;;;;11.27;9.45;;;;;;;4.92;95.78;98930.25;10324553;28;20052;-63
2023/12/05 08:14:30;;;;;;;13.10;9.10;;;;;;;5.02;96.50;98925.94;10335134;28;20054;-63
2023/12/05 08:19:32;;;;;;;12.52;9.85;;;;;;;5.09;97.00;98934.22;10332175;28;20164;-62
2023/12/05 08:24:33;;;;;;;12.50;10.15;;;;;;;5.09;97.67;98934.22;10334045;28;20058;-62
2023/12/05 08:29:36;;;;;;;12.10;9.88;;;;;;;5.11;98.12;98940.22;10326543;28;20053;-63
2023/12/05 08:34:40;;;;;;;14.90;12.13;;;;;;;5.13;96.60;98954.13;10316511;28;20062;-64
2023/12/05 08:39:42;;;;;;;15.90;11.07;;;;;;;5.15;95.69;98962.75;10333164;28;20110;-63
2023/12/05 08:44:45;;;;;;;14.15;11.80;;;;;;;5.12;94.89;98957.72;10334062;28;20415;-64
2023/12/05 08:49:46;;;;;;;15.85;12.30;;;;;;;5.06;95.09;98952.91;10316843;28;20054;-66
2023/12/05 08:54:48;;;;;;;12.88;11.35;;;;;;;5.06;95.15;98958.19;10337282;28;20046;-63
2023/12/05 08:59:52;;;;;;;17.33;12.03;;;;;;;5.19;94.71;98958.91;10349515;28;20058;-64
2023/12/05 09:04:54;;;;;;;16.92;13.57;;;;;;;5.15;95.17;98960.13;10307775;28;20054;-65
2023/12/05 09:09:56;;;;;;;16.00;12.15;;;;;;;5.20;95.13;98965.88;10325877;28;20144;-64
2023/12/05 09:14:58;;;;;;;14.57;11.93;;;;;;;5.13;95.44;98952.34;10344847;28;20608;-63
2023/12/05 09:20:00;;;;;;;14.68;11.90;;;;;;;5.22;95.07;98971.03;10347401;28;20131;-66
2023/12/05 09:25:02;;;;;;;13.43;11.07;;;;;;;5.23;95.82;98986.72;10332487;28;20136;-62
2023/12/05 09:30:05;;;;;;;14.30;10.65;;;;;;;5.27;95.60;98990.81;10337060;28;20121;-63
2023/12/05 09:35:07;;;;;;;13.40;11.45;;;;;;;5.26;95.88;98978.56;10342877;28;20184;-63
2023/12/05 09:40:09;;;;;;;12.63;9.70;;;;;;;5.41;96.08;99000.28;10348233;28;20050;-63
2023/12/05 09:45:15;;;;;;;14.43;10.52;;;;;;;5.47;96.21;99009.50;10336761;28;20805;-62
2023/12/05 09:50:20;;;;;;;19.02;12.52;;;;;;;5.47;97.02;98989.22;10351736;28;20064;-64
2023/12/05 09:55:23;;;;;;;12.65;11.23;;;;;;;5.60;97.17;98999.66;10341618;28;20049;-64
2023/12/05 10:00:25;;;;;;;12.77;8.30;;;;;;;5.67;98.75;99000.00;10331325;28;20667;-63
2023/12/05 10:05:29;;;;;;;5.20;4.43;;;;;;;5.74;100.00;98995.06;10349747;28;20137;-64
2023/12/05 10:10:33;;;;;;;2.93;2.30;;;;;;;5.80;100.00;98981.38;10336702;28;20564;-63
2023/12/05 10:15:34;;;;;;;3.05;1.50;;;;;;;5.86;100.00;98966.84;10338103;28;20049;-63
2023/12/05 10:20:38;;;;;;;3.63;1.85;;;;;;;5.87;100.00;98966.72;10338134;28;20054;-65
2023/12/05 10:25:43;;;;;;;3.38;1.42;;;;;;;6.03;100.00;98976.88;10339288;28;20049;-60
2023/12/05 10:30:44;;;;;;;4.15;1.15;;;;;;;6.13;100.00;98979.63;10347850;28;20522;-63
2023/12/05 10:35:46;;;;;;;1.88;1.13;;;;;;;6.17;99.65;98970.44;10344013;28;20052;-64
2023/12/05 10:40:55;;;;;;;2.35;0.75;;;;;;;6.23;99.73;98984.97;10351561;28;20045;-64
2023/12/05 10:46:03;;;;;;;1.90;1.05;;;;;;;6.08;99.30;98943.00;10327323;28;20073;-61
2023/12/05 10:51:04;;;;;;;3.03;1.10;;;;;;;6.24;98.75;98950.47;10331200;28;20060;-63
2023/12/05 10:56:16;;;;;;;2.35;0.90;;;;;;;6.42;98.18;98974.53;10344431;28;20057;-61
2023/12/05 11:01:18;;;;;;;3.83;1.40;;;;;;;6.49;98.04;98965.13;10352713;28;20049;-61
2023/12/05 11:06:22;;;;;;;2.45;1.60;;;;;;;6.56;97.84;98973.41;10334726;28;20050;-63
2023/12/05 11:11:25;;;;;;;1.70;1.27;;;;;;;6.62;97.06;98970.25;10351651;28;20772;-64
2023/12/05 11:16:35;;;;;;;2.35;0.70;;;;;;;6.77;96.78;98956.66;10348308;28;20192;-64
2023/12/05 11:22:04;;;;;;;1.15;0.60;;;;;;;6.81;95.20;98966.03;10351382;28;20050;-63
2023/12/05 11:27:27;;;;;;;1.70;0.80;;;;;;;6.80;95.51;98962.56;10337306;28;20576;-60
2023/12/05 11:32:44;;;;;;;2.20;0.60;;;;;;;6.80;95.85;98973.13;10330256;28;20056;-61
2023/12/05 11:38:07;;;;;;;2.45;0.85;;;;;;;6.95;94.93;98965.69;10341786;28;20603;-62
2023/12/05 11:43:11;;;;;;;2.83;1.75;;;;;;;7.34;93.20;98955.25;10345709;28;20049;-66
2023/12/05 11:48:16;;;;;;;3.40;2.00;;;;;;;7.70;90.59;98971.53;10334262;28;20049;-63
2023/12/05 11:53:18;;;;;;;2.72;0.70;;;;;;;7.38;91.06;98966.41;10320387;28;20057;-63
2023/12/05 11:58:29;;;;;;;1.80;1.17;;;;;;;7.25;91.07;98969.28;10337296;28;20131;-60
2023/12/05 12:03:53;;;;;;;1.52;0.90;;;;;;;7.18;91.94;98966.34;10326183;28;20698;-63
2023/12/05 12:08:57;;;;;;;3.45;1.20;;;;;;;7.05;91.96;98955.97;10345681;28;20106;-64
2023/12/05 12:14:10;;;;;;;2.50;1.23;;;;;;;7.14;92.35;98974.69;10338050;28;20602;-64
2023/12/05 12:19:13;;;;;;;1.30;0.70;;;;;;;7.10;92.33;98962.66;10334854;28;20444;-63
2023/12/05 12:24:20;;;;;;;11.45;7.72;;;;;;;7.12;91.98;98971.34;10334356;28;20049;-65
2023/12/05 12:29:22;;;;;;;3.67;3.30;;;;;;;7.10;91.83;98973.25;10320619;28;20624;-65
2023/12/05 12:34:28;;;;;;;6.07;4.50;;;;;;;7.11;91.87;98972.31;10325393;28;20049;-62
2023/12/05 12:39:33;;;;;;;4.82;1.58;;;;;;;7.03;91.71;98970.31;10303885;28;20139;-63
2023/12/05 12:44:35;;;;;;;3.95;2.03;;;;;;;6.98;92.23;98970.72;10355987;28;20057;-63
2023/12/05 12:49:36;;;;;;;1.92;0.77;;;;;;;7.01;92.58;98975.75;10336544;28;20099;-65
2023/12/05 12:54:40;;;;;;;3.58;2.42;;;;;;;7.01;92.09;98970.44;10354500;28;20076;-62
2023/12/05 12:59:41;;;;;;;3.10;1.45;;;;;;;7.01;92.22;98965.16;10358671;28;20057;-64
2023/12/05 13:04:44;;;;;;;2.40;1.25;;;;;;;7.02;91.73;98973.94;10342899;28;20053;-63
2023/12/05 13:09:45;;;;;;;5.63;3.75;;;;;;;6.97;91.66;98976.97;10345830;28;20065;-64
2023/12/05 13:14:49;;;;;;;3.83;1.70;;;;;;;6.98;91.62;98970.72;10337163;28;20057;-64
2023/12/05 13:20:03;;;;;;;13.98;12.38;;;;;;;7.00;91.48;98987.28;10340562;28;20148;-65
2023/12/05 13:25:06;;;;;;;5.47;4.93;;;;;;;6.99;91.79;98979.47;10337141;28;20061;-65
2023/12/05 13:30:14;;;;;;;1.63;1.02;;;;;;;7.01;91.42;98973.09;10344956;28;20531;-65
2023/12/05 13:35:16;;;;;;;1.40;0.93;;;;;;;7.01;90.58;98980.19;10340595;28;20053;-65
2023/12/05 13:40:17;;;;;;;1.52;0.65;;;;;;;6.97;90.79;98973.50;10322491;28;20711;-65
2023/12/05 13:45:19;;;;;;;1.73;1.08;;;;;;;6.97;89.88;98984.09;10320021;28;20103;-65
2023/12/05 13:50:25;;;;;;;1.50;0.90;;;;;;;6.82;91.33;98970.34;10338348;28;20042;-64
2023/12/05 13:55:26;;;;;;;1.63;0.75;;;;;;;6.95;92.11;98992.16;10326904;28;20042;-63
2023/12/05 14:00:28;;;;;;;1.35;0.57;;;;;;;6.96;92.52;99007.03;10341362;28;20046;-64
2023/12/05 14:05:29;;;;;;;0.93;0.50;;;;;;;6.89;93.22;99013.81;10352523;28;20480;-64
2023/12/05 14:10:31;;;;;;;0.90;0.45;;;;;;;6.75;94.41;99007.03;10321257;28;20713;-67
2023/12/05 14:15:34;;;;;;;1.40;0.55;;;;;;;6.72;95.19;99012.59;10350033;28;20665;-63
2023/12/05 14:20:35;;;;;;;1.05;0.32;;;;;;;6.71;95.71;99013.56;10334164;28;20080;-64
2023/12/05 14:25:37;;;;;;;0.70;0.40;;;;;;;6.64;95.75;99021.19;10339060;28;20060;-65
2023/12/05 14:30:39;;;;;;;0.60;0.20;;;;;;;6.58;96.47;99026.97;10345621;28;20137;-63
2023/12/05 14:35:41;;;;;;;1.38;0.28;;;;;;;6.51;97.53;99034.56;10338807;28;20132;-64
2023/12/05 14:40:43;;;;;;;0.35;0.20;;;;;;;6.36;95.53;99020.00;10339000;28;20060;-63
2023/12/05 14:45:44;;;;;;;1.98;0.40;;;;;;;6.32;95.70;99045.84;10336462;28;20046;-62
2023/12/05 14:50:47;;;;;;;1.60;0.10;;;;;;;6.16;95.15;99061.28;10339415;28;20046;-64
2023/12/05 14:55:48;;;;;;;0.82;0.25;;;;;;;6.11;96.84;99044.94;10334304;28;20136;-64
2023/12/05 15:00:51;;;;;;;0.40;0.10;;;;;;;6.19;96.73;99063.66;10352744;28;20057;-64
2023/12/05 15:05:53;;;;;;;0.47;0.20;;;;;;;6.01;97.84;99040.41;10334721;28;20050;-64
2023/12/05 15:10:55;;;;;;;1.23;0.65;;;;;;;6.24;98.33;99074.69;10337198;28;20082;-64
2023/12/05 15:15:57;;;;;;;2.15;0.30;;;;;;;6.16;97.82;99074.50;10336343;28;20050;-65
2023/12/05 15:20:59;;;;;;;0.40;0.20;;;;;;;6.02;98.86;99072.97;10337937;28;20450;-67
2023/12/05 15:26:00;;;;;;;1.55;0.40;;;;;;;6.11;98.40;99076.66;10337534;28;20096;-63
2023/12/05 15:31:02;;;;;;;1.88;0.70;;;;;;;6.13;98.76;99077.38;10342593;28;20100;-65
2023/12/05 15:36:10;;;;;;;1.70;0.65;;;;;;;6.11;99.39;99081.94;10344498;28;20158;-66
2023/12/05 15:41:12;;;;;;;1.27;0.45;;;;;;;6.14;99.58;99077.25;10339702;28;20095;-65
2023/12/05 15:46:21;;;;;;;1.58;0.43;;;;;;;6.11;100.00;99072.22;10334777;28;20107;-64
2023/12/05 15:51:23;;;;;;;0.90;0.30;;;;;;;6.01;100.00;99097.69;10352375;28;20053;-65
2023/12/05 15:56:24;;;;;;;1.52;0.32;;;;;;;5.84;100.00;99096.38;10347152;28;20053;-66
2023/12/05 16:01:27;;;;;;;0.68;0.30;;;;;;;5.91;100.00;99092.25;10338750;28;20054;-65
2023/12/05 16:06:29;;;;;;;1.48;0.70;;;;;;;5.89;100.00;99096.84;10339830;28;20151;-65
2023/12/05 16:11:30;;;;;;;3.42;0.77;;;;;;;5.78;100.00;99086.28;10337686;28;20559;-67
2023/12/05 16:16:37;;;;;;;1.48;0.40;;;;;;;5.86;100.00;99099.72;10335229;28;20056;-66
2023/12/05 16:21:38;;;;;;;1.70;0.68;;;;;;;5.77;100.00;99090.72;10339732;28;20069;-66
2023/12/05 16:26:40;;;;;;;3.55;2.10;;;;;;;5.83;100.00;99107.88;10343213;28;20494;-66
2023/12/05 16:31:41;;;;;;;1.33;0.75;;;;;;;5.84;100.00;99117.50;10338516;28;20049;-65
2023/12/05 16:36:43;;;;;;;2.47;1.05;;;;;;;5.76;100.00;99130.44;10342882;28;20647;-65
2023/12/05 16:41:44;;;;;;;1.98;1.10;;;;;;;5.67;100.00;99116.16;10344604;28;20562;-64
2023/12/05 16:46:46;;;;;;;1.75;0.85;;;;;;;5.80;100.00;99122.16;10344323;28;20065;-68
2023/12/05 16:51:47;;;;;;;1.85;1.17;;;;;;;5.77;100.00;99130.34;10340949;28;20057;-64
2023/12/05 16:56:52;;;;;;;1.58;0.60;;;;;;;5.58;100.00;99125.63;10336865;28;20062;-64
2023/12/05 17:01:53;;;;;;;1.42;0.65;;;;;;;5.64;100.00;99138.38;10340867;28;20057;-63
2023/12/05 17:06:55;;;;;;;0.85;0.45;;;;;;;5.72;100.00;99144.84;10327284;28;20060;-64
2023/12/05 17:11:57;;;;;;;1.83;0.77;;;;;;;5.72;100.00;99145.72;10339565;28;20053;-63
2023/12/05 17:17:01;;;;;;;1.25;0.40;;;;;;;5.64;100.00;99148.94;10341568;28;20112;-63
2023/12/05 17:22:03;;;;;;;2.17;0.50;;;;;;;5.65;100.00;99145.34;10339666;28;20132;-64
2023/12/05 17:27:05;;;;;;;4.57;3.33;;;;;;;5.65;100.00;99150.59;10345172;28;20050;-63
2023/12/05 17:32:08;;;;;;;1.52;1.15;;;;;;;5.70;100.00;99163.44;10339188;28;20621;-63
2023/12/05 17:37:10;;;;;;;2.53;1.80;;;;;;;5.61;100.00;99162.34;10355420;28;20100;-63
2023/12/05 17:42:11;;;;;;;3.33;1.08;;;;;;;5.60;100.00;99167.75;10341974;28;20053;-64
2023/12/05 17:47:13;;;;;;;1.77;1.25;;;;;;;5.64;100.00;99167.44;10341531;28;20056;-64
2023/12/05 17:52:15;;;;;;;2.78;0.90;;;;;;;5.59;100.00;99161.66;10338238;28;20058;-63
2023/12/05 17:57:17;;;;;;;2.03;1.08;;;;;;;5.49;100.00;99171.22;10342193;28;20053;-63
2023/12/05 18:02:19;;;;;;;1.13;0.73;;;;;;;5.42;100.00;99170.88;10343345;28;20128;-64
2023/12/05 18:07:20;;;;;;;1.25;0.93;;;;;;;5.43;100.00;99177.81;10333693;28;20049;-64
2023/12/05 18:12:42;;;;;;;1.58;0.40;;;;;;;5.44;100.00;99199.78;10343658;28;20049;-63
2023/12/05 18:17:44;;;;;;;1.23;0.50;;;;;;;5.37;100.00;99188.00;10344985;28;20066;-63
2023/12/05 18:22:47;;;;;;;1.13;0.63;;;;;;;5.43;100.00;99192.81;10336612;28;20171;-63
2023/12/05 18:27:52;;;;;;;2.38;1.00;;;;;;;5.43;100.00;99193.66;10318648;28;20427;-66
2023/12/05 18:32:54;;;;;;;1.23;0.80;;;;;;;5.47;100.00;99197.75;10311159;28;20057;-65
2023/12/05 18:37:56;;;;;;;3.10;0.90;;;;;;;5.46;100.00;99192.59;10355321;28;20522;-64
2023/12/05 18:42:57;;;;;;;13.95;10.25;;;;;;;5.41;100.00;99202.66;10345741;28;20045;-64
2023/12/05 18:47:58;;;;;;;11.75;9.20;;;;;;;5.45;100.00;99214.66;10342940;28;20050;-64
2023/12/05 18:53:03;;;;;;;1.92;0.93;;;;;;;5.51;100.00;99215.97;10335265;28;20676;-64
2023/12/05 18:58:05;;;;;;;5.28;3.97;;;;;;;5.37;100.00;99202.03;10337595;28;20136;-64
2023/12/05 19:03:07;;;;;;;52.90;39.20;;;;;;;5.43;100.00;99213.94;10339533;28;20045;-64
2023/12/05 19:08:09;;;;;;;7.78;5.30;;;;;;;5.51;100.00;99221.25;10318525;28;20068;-64
2023/12/05 19:13:11;;;;;;;4.82;3.70;;;;;;;5.51;100.00;99215.97;10324429;28;20110;-65
2023/12/05 19:18:14;;;;;;;1.77;1.60;;;;;;;5.46;100.00;99222.47;10334209;28;20100;-63
2023/12/05 19:23:15;;;;;;;8.93;5.20;;;;;;;5.38;100.00;99210.81;10333729;28;20543;-65
2023/12/05 19:28:19;;;;;;;1.90;1.50;;;;;;;5.47;100.00;99221.50;10336509;28;20076;-64
2023/12/05 19:33:21;;;;;;;42.38;29.85;;;;;;;5.47;100.00;99228.59;10316934;28;20053;-65
2023/12/05 19:38:24;;;;;;;2.97;2.45;;;;;;;5.21;100.00;99191.81;10348497;28;20136;-64
2023/12/05 19:43:26;;;;;;;23.92;14.82;;;;;;;5.40;100.00;99224.72;10325279;28;20041;-63
2023/12/05 19:48:29;;;;;;;1.92;1.52;;;;;;;5.34;100.00;99230.47;10351996;28;20049;-65
2023/12/05 19:53:30;;;;;;;2.22;1.50;;;;;;;5.35;100.00;99234.78;10336603;28;20432;-64
2023/12/05 19:58:32;;;;;;;2.55;2.15;;;;;;;5.27;100.00;99236.22;10326603;28;20154;-65
2023/12/05 20:03:35;;;;;;;4.05;1.73;;;;;;;5.28;100.00;99242.31;10334699;28;20112;-64
2023/12/05 20:08:36;;;;;;;1.92;1.70;;;;;;;5.29;100.00;99241.38;10333034;28;20041;-64
2023/12/05 20:13:38;;;;;;;2.20;1.90;;;;;;;5.20;100.00;99242.06;10329923;28;20084;-64
2023/12/05 20:18:42;;;;;;;2.83;1.98;;;;;;;5.31;100.00;99248.22;10349672;28;20046;-63
2023/12/05 20:23:45;;;;;;;2.40;2.08;;;;;;;5.49;100.00;99255.69;10329034;28;20057;-67
2023/12/05 20:28:51;;;;;;;2.05;1.80;;;;;;;5.49;100.00;99247.78;10335371;28;20058;-68
2023/12/05 20:33:52;;;;;;;2.47;1.90;;;;;;;5.48;100.00;99260.16;10333725;28;20091;-63
2023/12/05 20:38:54;;;;;;;1.63;1.27;;;;;;;5.36;100.00;99260.22;10340748;28;20061;-64
2023/12/05 20:43:56;;;;;;;2.45;1.88;;;;;;;5.31;100.00;99264.06;10312957;28;20079;-63
2023/12/05 20:48:58;;;;;;;2.05;1.85;;;;;;;5.32;100.00;99268.34;10344055;28;20111;-64
2023/12/05 20:53:59;;;;;;;2.03;1.83;;;;;;;5.30;100.00;99267.63;10326526;28;20077;-64
2023/12/05 20:59:01;;;;;;;2.38;2.15;;;;;;;5.30;100.00;99262.38;10336455;28;20050;-64
2023/12/05 21:04:04;;;;;;;3.15;2.50;;;;;;;5.34;100.00;99268.25;10328945;28;20084;-63
2023/12/05 21:09:05;;;;;;;3.53;2.50;;;;;;;5.28;100.00;99268.69;10355509;28;20057;-63
2023/12/05 21:14:15;;;;;;;2.70;1.92;;;;;;;5.28;100.00;99272.22;10342132;28;20049;-62
2023/12/05 21:19:20;;;;;;;2.70;2.50;;;;;;;5.30;100.00;99277.38;10359275;28;20068;-64
2023/12/05 21:24:22;;;;;;;2.70;2.50;;;;;;;5.35;100.00;99274.38;10328393;28;20061;-64
2023/12/05 21:29:23;;;;;;;2.97;2.72;;;;;;;5.32;100.00;99271.00;10349344;28;20433;-63
2023/12/05 21:34:24;;;;;;;3.00;2.65;;;;;;;5.42;100.00;99286.13;10349273;28;20102;-63
2023/12/05 21:39:26;;;;;;;3.38;3.08;;;;;;;5.46;100.00;99287.59;10343448;28;20128;-65
2023/12/05 21:44:29;;;;;;;3.67;3.00;;;;;;;5.48;100.00;99297.09;10347262;28;20049;-63
2023/12/05 21:49:32;;;;;;;3.28;3.03;;;;;;;5.44;100.00;99294.81;10337504;28;20054;-63
2023/12/05 21:54:34;;;;;;;2.85;2.60;;;;;;;5.28;100.00;99284.53;10329161;28;20183;-63
2023/12/05 21:59:36;;;;;;;2.63;2.42;;;;;;;5.39;100.00;99312.75;10330559;28;20069;-64
2023/12/05 22:04:37;;;;;;;2.88;2.33;;;;;;;5.46;100.00;99314.00;10339317;28;20543;-65
2023/12/05 22:09:39;;;;;;;2.80;2.42;;;;;;;5.50;100.00;99312.81;10341999;28;20046;-64
2023/12/05 22:14:42;;;;;;;2.75;2.53;;;;;;;5.52;100.00;99318.00;10359315;28;20775;-64
2023/12/05 22:19:43;;;;;;;2.78;2.58;;;;;;;5.53;100.00;99325.78;10337303;28;20045;-64
2023/12/05 22:24:45;;;;;;;2.85;2.63;;;;;;;5.50;100.00;99326.03;10311236;28;20107;-63
2023/12/05 22:29:49;;;;;;;3.20;2.88;;;;;;;5.53;100.00;99331.06;10337556;28;20508;-64
2023/12/05 22:34:51;;;;;;;3.67;3.28;;;;;;;5.48;100.00;99318.22;10347190;28;20068;-64
2023/12/05 22:39:53;;;;;;;3.45;3.15;;;;;;;5.59;100.00;99341.16;10339467;28;20506;-62
2023/12/05 22:44:57;;;;;;;3.50;3.20;;;;;;;5.61;100.00;99355.09;10341404;28;20137;-64
2023/12/05 22:49:58;;;;;;;3.25;2.95;;;;;;;5.61;100.00;99359.53;10336345;28;20133;-65
2023/12/05 22:55:00;;;;;;;3.47;3.17;;;;;;;5.59;100.00;99349.09;10343458;28;20057;-63
2023/12/05 23:00:06;;;;;;;3.13;2.90;;;;;;;5.68;100.00;99359.94;10330079;28;20045;-67
2023/12/05 23:05:08;;;;;;;3.58;2.65;;;;;;;5.62;100.00;99356.78;10315569;28;20042;-66
2023/12/05 23:10:09;;;;;;;3.38;3.08;;;;;;;5.57;100.00;99368.63;10339685;28;20072;-64
2023/12/05 23:15:11;;;;;;;2.80;2.60;;;;;;;5.55;100.00;99366.09;10351290;28;20056;-64
2023/12/05 23:20:13;;;;;;;3.08;2.78;;;;;;;5.62;100.00;99372.63;10332071;28;20053;-63
2023/12/05 23:25:15;;;;;;;2.95;2.70;;;;;;;5.58;100.00;99376.44;10339856;28;20104;-62
2023/12/05 23:30:18;;;;;;;3.05;2.85;;;;;;;5.54;100.00;99358.31;10333687;28;20052;-66